sensor_id;sensor_type;location;lat;lon;timestamp;P1;durP1;ratioP1;P2;durP2;ratioP2
19183;SDS011;9724;51.194;6.856;2023-12-04T00:00:01;22.57;;;8.97;;
19183;SDS011;9724;51.194;6.856;2023-12-04T00:02:29;23.73;;;10.53;;
19183;SDS011;9724;51.194;6.856;2023-12-04T00:04:55;22.37;;;10.63;;
19183;SDS011;9724;51.194;6.856;2023-12-04T00:07:22;27.37;;;11.63;;
19183;SDS011;9724;51.194;6.856;2023-12-04T00:09:48;22.97;;;10.40;;
19183;SDS011;9724;51.194;6.856;2023-12-04T00:12:15;20.70;;;9.50;;
19183;SDS011;9724;51.194;6.856;2023-12-04T00:14:42;22.83;;;10.03;;
19183;SDS011;9724;51.194;6.856;2023-12-04T00:17:08;20.40;;;10.40;;
19183;SDS011;9724;51.194;6.856;2023-12-04T00:19:34;17.33;;;9.27;;
19183;SDS011;9724;51.194;6.856;2023-12-04T00:22:01;20.73;;;9.40;;
19183;SDS011;9724;51.194;6.856;2023-12-04T00:24:27;20.83;;;9.10;;
19183;SDS011;9724;51.194;6.856;2023-12-04T00:26:54;20.53;;;9.77;;
19183;SDS011;9724;51.194;6.856;2023-12-04T00:29:21;17.13;;;8.23;;
19183;SDS011;9724;51.194;6.856;2023-12-04T00:31:47;18.87;;;9.17;;
19183;SDS011;9724;51.194;6.856;2023-12-04T00:34:13;19.83;;;9.20;;
19183;SDS011;9724;51.194;6.856;2023-12-04T00:36:40;20.77;;;10.00;;
19183;SDS011;9724;51.194;6.856;2023-12-04T00:39:06;19.50;;;9.93;;
19183;SDS011;9724;51.194;6.856;2023-12-04T00:41:33;20.30;;;8.57;;
19183;SDS011;9724;51.194;6.856;2023-12-04T00:44:01;22.50;;;8.87;;
19183;SDS011;9724;51.194;6.856;2023-12-04T00:46:28;20.47;;;8.73;;
19183;SDS011;9724;51.194;6.856;2023-12-04T00:48:55;17.60;;;9.30;;
19183;SDS011;9724;51.194;6.856;2023-12-04T00:51:21;16.63;;;8.57;;
19183;SDS011;9724;51.194;6.856;2023-12-04T00:53:48;19.70;;;8.60;;
19183;SDS011;9724;51.194;6.856;2023-12-04T00:56:14;16.20;;;8.90;;
19183;SDS011;9724;51.194;6.856;2023-12-04T00:58:40;18.80;;;9.10;;
19183;SDS011;9724;51.194;6.856;2023-12-04T01:01:07;19.07;;;9.43;;
19183;SDS011;9724;51.194;6.856;2023-12-04T01:03:34;17.47;;;9.47;;
19183;SDS011;9724;51.194;6.856;2023-12-04T01:06:00;19.67;;;9.73;;
19183;SDS011;9724;51.194;6.856;2023-12-04T01:08:27;18.03;;;9.67;;
19183;SDS011;9724;51.194;6.856;2023-12-04T01:10:53;22.63;;;9.77;;
19183;SDS011;9724;51.194;6.856;2023-12-04T01:13:19;18.30;;;9.63;;
19183;SDS011;9724;51.194;6.856;2023-12-04T01:15:46;15.63;;;8.50;;
19183;SDS011;9724;51.194;6.856;2023-12-04T01:18:14;15.87;;;8.70;;
19183;SDS011;9724;51.194;6.856;2023-12-04T01:20:41;18.97;;;9.10;;
19183;SDS011;9724;51.194;6.856;2023-12-04T01:23:07;18.37;;;8.60;;
19183;SDS011;9724;51.194;6.856;2023-12-04T01:25:34;15.13;;;8.67;;
19183;SDS011;9724;51.194;6.856;2023-12-04T01:28:00;15.40;;;7.97;;
19183;SDS011;9724;51.194;6.856;2023-12-04T01:30:27;20.97;;;9.03;;
19183;SDS011;9724;51.194;6.856;2023-12-04T01:32:53;15.87;;;8.03;;
19183;SDS011;9724;51.194;6.856;2023-12-04T01:35:20;19.40;;;9.10;;
19183;SDS011;9724;51.194;6.856;2023-12-04T01:37:47;16.67;;;8.60;;
19183;SDS011;9724;51.194;6.856;2023-12-04T01:40:13;17.30;;;8.70;;
19183;SDS011;9724;51.194;6.856;2023-12-04T01:42:39;18.20;;;8.93;;
19183;SDS011;9724;51.194;6.856;2023-12-04T01:45:06;15.37;;;8.43;;
19183;SDS011;9724;51.194;6.856;2023-12-04T01:47:34;16.57;;;8.40;;
19183;SDS011;9724;51.194;6.856;2023-12-04T01:50:01;13.07;;;7.37;;
19183;SDS011;9724;51.194;6.856;2023-12-04T01:52:27;18.00;;;9.20;;
19183;SDS011;9724;51.194;6.856;2023-12-04T01:54:54;19.60;;;8.20;;
19183;SDS011;9724;51.194;6.856;2023-12-04T01:57:20;17.13;;;7.87;;
19183;SDS011;9724;51.194;6.856;2023-12-04T01:59:47;15.83;;;8.97;;
19183;SDS011;9724;51.194;6.856;2023-12-04T02:02:16;17.10;;;8.70;;
19183;SDS011;9724;51.194;6.856;2023-12-04T02:04:43;16.93;;;8.33;;
19183;SDS011;9724;51.194;6.856;2023-12-04T02:07:09;15.63;;;8.10;;
19183;SDS011;9724;51.194;6.856;2023-12-04T02:09:36;14.17;;;7.77;;
19183;SDS011;9724;51.194;6.856;2023-12-04T02:12:04;16.50;;;8.23;;
19183;SDS011;9724;51.194;6.856;2023-12-04T02:14:31;14.23;;;8.00;;
19183;SDS011;9724;51.194;6.856;2023-12-04T02:16:57;14.47;;;7.93;;
19183;SDS011;9724;51.194;6.856;2023-12-04T02:19:24;16.20;;;8.63;;
19183;SDS011;9724;51.194;6.856;2023-12-04T02:21:50;11.27;;;6.23;;
19183;SDS011;9724;51.194;6.856;2023-12-04T02:24:17;18.10;;;8.17;;
19183;SDS011;9724;51.194;6.856;2023-12-04T02:26:44;16.43;;;8.40;;
19183;SDS011;9724;51.194;6.856;2023-12-04T02:29:14;13.93;;;7.80;;
19183;SDS011;9724;51.194;6.856;2023-12-04T02:31:42;15.00;;;7.90;;
19183;SDS011;9724;51.194;6.856;2023-12-04T02:34:09;15.57;;;7.87;;
19183;SDS011;9724;51.194;6.856;2023-12-04T02:36:37;13.90;;;7.47;;
19183;SDS011;9724;51.194;6.856;2023-12-04T02:39:03;14.13;;;8.10;;
19183;SDS011;9724;51.194;6.856;2023-12-04T02:41:31;12.73;;;7.07;;
19183;SDS011;9724;51.194;6.856;2023-12-04T02:43:57;17.33;;;7.90;;
19183;SDS011;9724;51.194;6.856;2023-12-04T02:46:24;16.63;;;8.13;;
19183;SDS011;9724;51.194;6.856;2023-12-04T02:48:50;14.77;;;8.20;;
19183;SDS011;9724;51.194;6.856;2023-12-04T02:51:17;14.80;;;8.17;;
19183;SDS011;9724;51.194;6.856;2023-12-04T02:53:43;15.40;;;8.57;;
19183;SDS011;9724;51.194;6.856;2023-12-04T02:56:10;15.23;;;7.80;;
19183;SDS011;9724;51.194;6.856;2023-12-04T02:58:37;15.80;;;8.63;;
19183;SDS011;9724;51.194;6.856;2023-12-04T03:01:04;15.67;;;7.90;;
19183;SDS011;9724;51.194;6.856;2023-12-04T03:03:31;18.17;;;8.63;;
19183;SDS011;9724;51.194;6.856;2023-12-04T03:05:57;16.80;;;8.47;;
19183;SDS011;9724;51.194;6.856;2023-12-04T03:08:24;16.33;;;7.53;;
19183;SDS011;9724;51.194;6.856;2023-12-04T03:10:50;14.97;;;8.10;;
19183;SDS011;9724;51.194;6.856;2023-12-04T03:13:16;15.37;;;7.73;;
19183;SDS011;9724;51.194;6.856;2023-12-04T03:15:44;17.10;;;7.47;;
19183;SDS011;9724;51.194;6.856;2023-12-04T03:18:10;11.67;;;6.50;;
19183;SDS011;9724;51.194;6.856;2023-12-04T03:20:38;15.93;;;6.97;;
19183;SDS011;9724;51.194;6.856;2023-12-04T03:23:04;14.87;;;8.17;;
19183;SDS011;9724;51.194;6.856;2023-12-04T03:25:31;11.40;;;7.17;;
19183;SDS011;9724;51.194;6.856;2023-12-04T03:27:58;13.77;;;7.30;;
19183;SDS011;9724;51.194;6.856;2023-12-04T03:30:24;12.07;;;6.07;;
19183;SDS011;9724;51.194;6.856;2023-12-04T03:32:54;13.30;;;7.33;;
19183;SDS011;9724;51.194;6.856;2023-12-04T03:35:21;13.90;;;6.73;;
19183;SDS011;9724;51.194;6.856;2023-12-04T03:37:47;18.97;;;7.93;;
19183;SDS011;9724;51.194;6.856;2023-12-04T03:40:15;10.83;;;6.47;;
19183;SDS011;9724;51.194;6.856;2023-12-04T03:42:41;9.03;;;5.30;;
19183;SDS011;9724;51.194;6.856;2023-12-04T03:45:08;11.50;;;6.70;;
19183;SDS011;9724;51.194;6.856;2023-12-04T03:47:35;13.23;;;7.43;;
19183;SDS011;9724;51.194;6.856;2023-12-04T03:50:02;13.50;;;6.50;;
19183;SDS011;9724;51.194;6.856;2023-12-04T03:52:29;11.40;;;6.37;;
19183;SDS011;9724;51.194;6.856;2023-12-04T03:54:56;13.03;;;6.87;;
19183;SDS011;9724;51.194;6.856;2023-12-04T03:57:22;14.20;;;7.37;;
19183;SDS011;9724;51.194;6.856;2023-12-04T03:59:48;13.17;;;6.80;;
19183;SDS011;9724;51.194;6.856;2023-12-04T04:02:15;12.27;;;6.90;;
19183;SDS011;9724;51.194;6.856;2023-12-04T04:04:41;11.87;;;6.47;;
19183;SDS011;9724;51.194;6.856;2023-12-04T04:07:09;12.80;;;7.10;;
19183;SDS011;9724;51.194;6.856;2023-12-04T04:09:35;12.43;;;6.60;;
19183;SDS011;9724;51.194;6.856;2023-12-04T04:12:02;13.07;;;7.17;;
19183;SDS011;9724;51.194;6.856;2023-12-04T04:14:28;12.37;;;6.93;;
19183;SDS011;9724;51.194;6.856;2023-12-04T04:16:55;12.73;;;6.93;;
19183;SDS011;9724;51.194;6.856;2023-12-04T04:19:21;10.17;;;5.87;;
19183;SDS011;9724;51.194;6.856;2023-12-04T04:21:48;9.73;;;5.93;;
19183;SDS011;9724;51.194;6.856;2023-12-04T04:24:15;11.80;;;6.63;;
19183;SDS011;9724;51.194;6.856;2023-12-04T04:26:41;12.90;;;6.63;;
19183;SDS011;9724;51.194;6.856;2023-12-04T04:29:08;11.37;;;5.80;;
19183;SDS011;9724;51.194;6.856;2023-12-04T04:31:35;13.60;;;6.70;;
19183;SDS011;9724;51.194;6.856;2023-12-04T04:34:02;14.67;;;6.97;;
19183;SDS011;9724;51.194;6.856;2023-12-04T04:36:28;8.87;;;5.40;;
19183;SDS011;9724;51.194;6.856;2023-12-04T04:38:55;11.13;;;6.27;;
19183;SDS011;9724;51.194;6.856;2023-12-04T04:41:22;13.73;;;7.33;;
19183;SDS011;9724;51.194;6.856;2023-12-04T04:43:49;11.90;;;6.67;;
19183;SDS011;9724;51.194;6.856;2023-12-04T04:46:15;12.30;;;6.17;;
19183;SDS011;9724;51.194;6.856;2023-12-04T04:48:41;12.63;;;6.77;;
19183;SDS011;9724;51.194;6.856;2023-12-04T04:51:08;12.53;;;7.07;;
19183;SDS011;9724;51.194;6.856;2023-12-04T04:53:34;11.57;;;6.37;;
19183;SDS011;9724;51.194;6.856;2023-12-04T04:56:00;10.73;;;6.33;;
19183;SDS011;9724;51.194;6.856;2023-12-04T04:58:27;12.87;;;7.37;;
19183;SDS011;9724;51.194;6.856;2023-12-04T05:00:54;13.37;;;7.03;;
19183;SDS011;9724;51.194;6.856;2023-12-04T05:03:20;6.10;;;3.50;;
19183;SDS011;9724;51.194;6.856;2023-12-04T05:05:49;12.03;;;6.00;;
19183;SDS011;9724;51.194;6.856;2023-12-04T05:08:15;13.77;;;6.93;;
19183;SDS011;9724;51.194;6.856;2023-12-04T05:10:42;12.43;;;6.80;;
19183;SDS011;9724;51.194;6.856;2023-12-04T05:13:08;15.23;;;7.90;;
19183;SDS011;9724;51.194;6.856;2023-12-04T05:15:35;11.37;;;6.13;;
19183;SDS011;9724;51.194;6.856;2023-12-04T05:18:02;12.53;;;6.73;;
19183;SDS011;9724;51.194;6.856;2023-12-04T05:20:28;16.63;;;7.37;;
19183;SDS011;9724;51.194;6.856;2023-12-04T05:22:56;13.40;;;7.40;;
19183;SDS011;9724;51.194;6.856;2023-12-04T05:25:22;13.80;;;7.60;;
19183;SDS011;9724;51.194;6.856;2023-12-04T05:27:52;15.40;;;8.10;;
19183;SDS011;9724;51.194;6.856;2023-12-04T05:30:19;12.23;;;6.17;;
19183;SDS011;9724;51.194;6.856;2023-12-04T05:32:46;16.43;;;8.63;;
19183;SDS011;9724;51.194;6.856;2023-12-04T05:35:15;16.77;;;8.63;;
19183;SDS011;9724;51.194;6.856;2023-12-04T05:37:41;16.70;;;8.13;;
19183;SDS011;9724;51.194;6.856;2023-12-04T05:40:08;20.97;;;8.23;;
19183;SDS011;9724;51.194;6.856;2023-12-04T05:42:36;16.60;;;8.00;;
19183;SDS011;9724;51.194;6.856;2023-12-04T05:45:03;15.13;;;8.20;;
19183;SDS011;9724;51.194;6.856;2023-12-04T05:47:30;16.47;;;8.43;;
19183;SDS011;9724;51.194;6.856;2023-12-04T05:49:57;13.97;;;7.60;;
19183;SDS011;9724;51.194;6.856;2023-12-04T05:52:23;14.93;;;8.47;;
19183;SDS011;9724;51.194;6.856;2023-12-04T05:54:50;16.90;;;8.33;;
19183;SDS011;9724;51.194;6.856;2023-12-04T05:57:16;15.63;;;8.60;;
19183;SDS011;9724;51.194;6.856;2023-12-04T05:59:43;18.37;;;8.23;;
19183;SDS011;9724;51.194;6.856;2023-12-04T06:02:09;13.40;;;8.03;;
19183;SDS011;9724;51.194;6.856;2023-12-04T06:04:35;14.23;;;7.93;;
19183;SDS011;9724;51.194;6.856;2023-12-04T06:07:03;18.33;;;8.67;;
19183;SDS011;9724;51.194;6.856;2023-12-04T06:09:29;18.60;;;9.20;;
19183;SDS011;9724;51.194;6.856;2023-12-04T06:11:55;19.30;;;8.73;;
19183;SDS011;9724;51.194;6.856;2023-12-04T06:14:22;14.80;;;8.57;;
19183;SDS011;9724;51.194;6.856;2023-12-04T06:16:48;16.33;;;8.73;;
19183;SDS011;9724;51.194;6.856;2023-12-04T06:19:14;16.50;;;8.17;;
19183;SDS011;9724;51.194;6.856;2023-12-04T06:21:42;11.70;;;6.23;;
19183;SDS011;9724;51.194;6.856;2023-12-04T06:24:10;17.03;;;9.37;;
19183;SDS011;9724;51.194;6.856;2023-12-04T06:26:37;16.77;;;8.50;;
19183;SDS011;9724;51.194;6.856;2023-12-04T06:29:08;15.80;;;8.90;;
19183;SDS011;9724;51.194;6.856;2023-12-04T06:31:37;18.23;;;9.10;;
19183;SDS011;9724;51.194;6.856;2023-12-04T06:34:03;15.37;;;7.77;;
19183;SDS011;9724;51.194;6.856;2023-12-04T06:36:31;14.63;;;7.47;;
19183;SDS011;9724;51.194;6.856;2023-12-04T06:39:04;18.90;;;8.87;;
19183;SDS011;9724;51.194;6.856;2023-12-04T06:41:35;18.57;;;8.97;;
19183;SDS011;9724;51.194;6.856;2023-12-04T06:44:02;17.30;;;8.53;;
19183;SDS011;9724;51.194;6.856;2023-12-04T06:46:31;15.93;;;8.23;;
19183;SDS011;9724;51.194;6.856;2023-12-04T06:49:01;7.63;;;4.20;;
19183;SDS011;9724;51.194;6.856;2023-12-04T06:51:28;14.47;;;8.47;;
19183;SDS011;9724;51.194;6.856;2023-12-04T06:53:54;17.43;;;8.97;;
19183;SDS011;9724;51.194;6.856;2023-12-04T06:56:21;16.30;;;7.90;;
19183;SDS011;9724;51.194;6.856;2023-12-04T06:58:48;14.57;;;7.80;;
19183;SDS011;9724;51.194;6.856;2023-12-04T07:01:14;17.67;;;8.23;;
19183;SDS011;9724;51.194;6.856;2023-12-04T07:03:41;15.97;;;8.07;;
19183;SDS011;9724;51.194;6.856;2023-12-04T07:06:07;17.33;;;7.50;;
19183;SDS011;9724;51.194;6.856;2023-12-04T07:08:34;15.07;;;8.10;;
19183;SDS011;9724;51.194;6.856;2023-12-04T07:11:01;14.80;;;6.93;;
19183;SDS011;9724;51.194;6.856;2023-12-04T07:13:27;16.53;;;8.50;;
19183;SDS011;9724;51.194;6.856;2023-12-04T07:15:54;16.80;;;8.27;;
19183;SDS011;9724;51.194;6.856;2023-12-04T07:18:21;15.90;;;7.73;;
19183;SDS011;9724;51.194;6.856;2023-12-04T07:20:47;14.13;;;8.00;;
19183;SDS011;9724;51.194;6.856;2023-12-04T07:23:14;17.33;;;8.30;;
19183;SDS011;9724;51.194;6.856;2023-12-04T07:25:40;16.67;;;7.87;;
19183;SDS011;9724;51.194;6.856;2023-12-04T07:28:07;13.03;;;7.20;;
19183;SDS011;9724;51.194;6.856;2023-12-04T07:30:33;10.27;;;5.80;;
19183;SDS011;9724;51.194;6.856;2023-12-04T07:33:01;15.80;;;8.37;;
19183;SDS011;9724;51.194;6.856;2023-12-04T07:35:27;14.97;;;7.03;;
19183;SDS011;9724;51.194;6.856;2023-12-04T07:37:53;14.07;;;7.87;;
19183;SDS011;9724;51.194;6.856;2023-12-04T07:40:20;16.83;;;9.20;;
19183;SDS011;9724;51.194;6.856;2023-12-04T07:42:48;12.93;;;7.47;;
19183;SDS011;9724;51.194;6.856;2023-12-04T07:45:14;14.37;;;7.57;;
19183;SDS011;9724;51.194;6.856;2023-12-04T07:47:41;13.40;;;6.87;;
19183;SDS011;9724;51.194;6.856;2023-12-04T07:50:09;13.40;;;7.30;;
19183;SDS011;9724;51.194;6.856;2023-12-04T07:52:35;13.00;;;6.63;;
19183;SDS011;9724;51.194;6.856;2023-12-04T07:55:02;13.50;;;7.80;;
19183;SDS011;9724;51.194;6.856;2023-12-04T07:57:29;14.20;;;7.23;;
19183;SDS011;9724;51.194;6.856;2023-12-04T07:59:55;16.67;;;8.20;;
19183;SDS011;9724;51.194;6.856;2023-12-04T08:02:22;26.63;;;7.17;;
19183;SDS011;9724;51.194;6.856;2023-12-04T08:04:48;12.67;;;7.43;;
19183;SDS011;9724;51.194;6.856;2023-12-04T08:07:18;13.27;;;6.33;;
19183;SDS011;9724;51.194;6.856;2023-12-04T08:09:45;14.13;;;6.67;;
19183;SDS011;9724;51.194;6.856;2023-12-04T08:12:11;8.83;;;5.80;;
19183;SDS011;9724;51.194;6.856;2023-12-04T08:14:38;12.13;;;7.67;;
19183;SDS011;9724;51.194;6.856;2023-12-04T08:17:04;15.97;;;6.80;;
19183;SDS011;9724;51.194;6.856;2023-12-04T08:19:31;15.90;;;6.70;;
19183;SDS011;9724;51.194;6.856;2023-12-04T08:21:57;15.67;;;6.67;;
19183;SDS011;9724;51.194;6.856;2023-12-04T08:24:24;10.93;;;6.40;;
19183;SDS011;9724;51.194;6.856;2023-12-04T08:26:51;12.57;;;4.57;;
19183;SDS011;9724;51.194;6.856;2023-12-04T08:29:19;12.77;;;6.10;;
19183;SDS011;9724;51.194;6.856;2023-12-04T08:31:46;11.17;;;6.33;;
19183;SDS011;9724;51.194;6.856;2023-12-04T08:34:12;9.37;;;5.93;;
19183;SDS011;9724;51.194;6.856;2023-12-04T08:36:38;10.83;;;6.43;;
19183;SDS011;9724;51.194;6.856;2023-12-04T08:39:12;9.57;;;5.13;;
19183;SDS011;9724;51.194;6.856;2023-12-04T08:41:39;10.47;;;5.97;;
19183;SDS011;9724;51.194;6.856;2023-12-04T08:44:15;12.83;;;6.03;;
19183;SDS011;9724;51.194;6.856;2023-12-04T08:46:42;12.57;;;6.10;;
19183;SDS011;9724;51.194;6.856;2023-12-04T08:49:09;10.97;;;5.63;;
19183;SDS011;9724;51.194;6.856;2023-12-04T08:51:36;8.90;;;5.73;;
19183;SDS011;9724;51.194;6.856;2023-12-04T08:54:02;10.43;;;5.87;;
19183;SDS011;9724;51.194;6.856;2023-12-04T08:56:43;9.90;;;5.60;;
19183;SDS011;9724;51.194;6.856;2023-12-04T08:59:10;11.83;;;5.03;;
19183;SDS011;9724;51.194;6.856;2023-12-04T09:01:38;8.87;;;5.20;;
19183;SDS011;9724;51.194;6.856;2023-12-04T09:04:05;7.77;;;4.60;;
19183;SDS011;9724;51.194;6.856;2023-12-04T09:06:31;9.07;;;5.10;;
19183;SDS011;9724;51.194;6.856;2023-12-04T09:09:01;8.43;;;5.07;;
19183;SDS011;9724;51.194;6.856;2023-12-04T09:11:36;13.67;;;5.67;;
19183;SDS011;9724;51.194;6.856;2023-12-04T09:14:07;12.13;;;5.97;;
19183;SDS011;9724;51.194;6.856;2023-12-04T09:16:33;11.57;;;5.67;;
19183;SDS011;9724;51.194;6.856;2023-12-04T09:19:00;15.00;;;6.70;;
19183;SDS011;9724;51.194;6.856;2023-12-04T09:21:26;9.30;;;5.37;;
19183;SDS011;9724;51.194;6.856;2023-12-04T09:23:53;10.97;;;5.60;;
19183;SDS011;9724;51.194;6.856;2023-12-04T09:26:19;11.07;;;6.13;;
19183;SDS011;9724;51.194;6.856;2023-12-04T09:28:46;9.13;;;5.27;;
19183;SDS011;9724;51.194;6.856;2023-12-04T09:31:13;12.40;;;5.23;;
19183;SDS011;9724;51.194;6.856;2023-12-04T09:33:39;9.13;;;4.77;;
19183;SDS011;9724;51.194;6.856;2023-12-04T09:36:06;9.53;;;5.40;;
19183;SDS011;9724;51.194;6.856;2023-12-04T09:38:33;8.43;;;4.77;;
19183;SDS011;9724;51.194;6.856;2023-12-04T09:41:00;9.77;;;5.30;;
19183;SDS011;9724;51.194;6.856;2023-12-04T09:43:28;9.27;;;4.80;;
19183;SDS011;9724;51.194;6.856;2023-12-04T09:45:57;11.67;;;6.13;;
19183;SDS011;9724;51.194;6.856;2023-12-04T09:48:24;11.57;;;5.40;;
19183;SDS011;9724;51.194;6.856;2023-12-04T09:50:52;5.67;;;3.80;;
19183;SDS011;9724;51.194;6.856;2023-12-04T09:53:18;11.20;;;5.97;;
19183;SDS011;9724;51.194;6.856;2023-12-04T09:55:47;12.00;;;5.80;;
19183;SDS011;9724;51.194;6.856;2023-12-04T09:58:14;11.77;;;5.60;;
19183;SDS011;9724;51.194;6.856;2023-12-04T10:00:41;9.97;;;5.50;;
19183;SDS011;9724;51.194;6.856;2023-12-04T10:03:08;12.03;;;5.63;;
19183;SDS011;9724;51.194;6.856;2023-12-04T10:05:35;10.63;;;5.53;;
19183;SDS011;9724;51.194;6.856;2023-12-04T10:08:01;9.73;;;5.83;;
19183;SDS011;9724;51.194;6.856;2023-12-04T10:10:28;10.53;;;5.70;;
19183;SDS011;9724;51.194;6.856;2023-12-04T10:12:54;11.47;;;6.30;;
19183;SDS011;9724;51.194;6.856;2023-12-04T10:15:21;12.00;;;6.20;;
19183;SDS011;9724;51.194;6.856;2023-12-04T10:17:49;8.90;;;5.73;;
19183;SDS011;9724;51.194;6.856;2023-12-04T10:20:16;10.83;;;5.70;;
19183;SDS011;9724;51.194;6.856;2023-12-04T10:22:53;8.80;;;5.37;;
19183;SDS011;9724;51.194;6.856;2023-12-04T10:25:20;8.77;;;5.47;;
19183;SDS011;9724;51.194;6.856;2023-12-04T10:27:46;12.77;;;5.80;;
19183;SDS011;9724;51.194;6.856;2023-12-04T10:30:23;11.20;;;5.60;;
19183;SDS011;9724;51.194;6.856;2023-12-04T10:32:53;10.10;;;5.20;;
19183;SDS011;9724;51.194;6.856;2023-12-04T10:35:21;8.87;;;5.07;;
19183;SDS011;9724;51.194;6.856;2023-12-04T10:37:51;10.60;;;5.80;;
19183;SDS011;9724;51.194;6.856;2023-12-04T10:40:22;13.43;;;5.80;;
19183;SDS011;9724;51.194;6.856;2023-12-04T10:42:49;8.27;;;5.33;;
19183;SDS011;9724;51.194;6.856;2023-12-04T10:45:15;8.83;;;5.33;;
19183;SDS011;9724;51.194;6.856;2023-12-04T10:47:42;9.93;;;5.73;;
19183;SDS011;9724;51.194;6.856;2023-12-04T10:50:11;9.90;;;5.33;;
19183;SDS011;9724;51.194;6.856;2023-12-04T10:52:38;11.10;;;6.33;;
19183;SDS011;9724;51.194;6.856;2023-12-04T10:55:07;6.03;;;3.87;;
19183;SDS011;9724;51.194;6.856;2023-12-04T10:57:35;8.93;;;5.00;;
19183;SDS011;9724;51.194;6.856;2023-12-04T11:00:04;11.33;;;5.80;;
19183;SDS011;9724;51.194;6.856;2023-12-04T11:02:33;6.40;;;3.97;;
19183;SDS011;9724;51.194;6.856;2023-12-04T11:05:01;13.30;;;5.50;;
19183;SDS011;9724;51.194;6.856;2023-12-04T11:07:33;12.03;;;6.20;;
19183;SDS011;9724;51.194;6.856;2023-12-04T11:10:21;11.23;;;6.20;;
19183;SDS011;9724;51.194;6.856;2023-12-04T11:12:49;9.90;;;5.83;;
19183;SDS011;9724;51.194;6.856;2023-12-04T11:15:20;11.83;;;5.97;;
19183;SDS011;9724;51.194;6.856;2023-12-04T11:17:51;10.87;;;6.33;;
19183;SDS011;9724;51.194;6.856;2023-12-04T11:20:21;15.37;;;6.23;;
19183;SDS011;9724;51.194;6.856;2023-12-04T11:22:50;9.97;;;5.93;;
19183;SDS011;9724;51.194;6.856;2023-12-04T11:25:17;10.77;;;6.57;;
19183;SDS011;9724;51.194;6.856;2023-12-04T11:27:44;12.93;;;7.00;;
19183;SDS011;9724;51.194;6.856;2023-12-04T11:30:11;10.57;;;5.90;;
19183;SDS011;9724;51.194;6.856;2023-12-04T11:32:43;15.10;;;6.90;;
19183;SDS011;9724;51.194;6.856;2023-12-04T11:35:12;13.00;;;6.47;;
19183;SDS011;9724;51.194;6.856;2023-12-04T11:37:39;9.23;;;5.93;;
19183;SDS011;9724;51.194;6.856;2023-12-04T11:40:07;12.73;;;7.07;;
19183;SDS011;9724;51.194;6.856;2023-12-04T11:42:35;12.00;;;6.30;;
19183;SDS011;9724;51.194;6.856;2023-12-04T11:45:06;13.27;;;7.20;;
19183;SDS011;9724;51.194;6.856;2023-12-04T11:47:48;16.63;;;7.70;;
19183;SDS011;9724;51.194;6.856;2023-12-04T11:50:14;14.80;;;7.37;;
19183;SDS011;9724;51.194;6.856;2023-12-04T11:52:41;12.23;;;6.73;;
19183;SDS011;9724;51.194;6.856;2023-12-04T11:55:07;15.53;;;6.77;;
19183;SDS011;9724;51.194;6.856;2023-12-04T11:57:35;16.97;;;8.03;;
19183;SDS011;9724;51.194;6.856;2023-12-04T12:00:09;11.90;;;6.10;;
19183;SDS011;9724;51.194;6.856;2023-12-04T12:02:37;12.97;;;6.93;;
19183;SDS011;9724;51.194;6.856;2023-12-04T12:05:24;14.13;;;8.10;;
19183;SDS011;9724;51.194;6.856;2023-12-04T12:07:51;15.27;;;7.60;;
19183;SDS011;9724;51.194;6.856;2023-12-04T12:10:17;11.40;;;6.67;;
19183;SDS011;9724;51.194;6.856;2023-12-04T12:12:44;20.27;;;7.73;;
19183;SDS011;9724;51.194;6.856;2023-12-04T12:15:11;13.20;;;7.53;;
19183;SDS011;9724;51.194;6.856;2023-12-04T12:17:38;14.37;;;7.73;;
19183;SDS011;9724;51.194;6.856;2023-12-04T12:20:05;16.97;;;7.97;;
19183;SDS011;9724;51.194;6.856;2023-12-04T12:22:32;17.37;;;8.30;;
19183;SDS011;9724;51.194;6.856;2023-12-04T12:24:59;13.97;;;7.73;;
19183;SDS011;9724;51.194;6.856;2023-12-04T12:27:27;13.57;;;8.03;;
19183;SDS011;9724;51.194;6.856;2023-12-04T12:29:56;17.30;;;8.13;;
19183;SDS011;9724;51.194;6.856;2023-12-04T12:32:23;17.20;;;7.87;;
19183;SDS011;9724;51.194;6.856;2023-12-04T12:34:53;16.20;;;8.47;;
19183;SDS011;9724;51.194;6.856;2023-12-04T12:37:20;15.93;;;7.77;;
19183;SDS011;9724;51.194;6.856;2023-12-04T12:39:46;16.17;;;8.33;;
19183;SDS011;9724;51.194;6.856;2023-12-04T12:42:20;16.40;;;8.57;;
19183;SDS011;9724;51.194;6.856;2023-12-04T12:44:47;14.03;;;7.40;;
19183;SDS011;9724;51.194;6.856;2023-12-04T12:47:15;11.13;;;6.70;;
19183;SDS011;9724;51.194;6.856;2023-12-04T12:49:42;16.57;;;8.00;;
19183;SDS011;9724;51.194;6.856;2023-12-04T12:52:09;13.53;;;7.57;;
19183;SDS011;9724;51.194;6.856;2023-12-04T12:54:36;13.50;;;7.20;;
19183;SDS011;9724;51.194;6.856;2023-12-04T12:57:03;14.87;;;8.03;;
19183;SDS011;9724;51.194;6.856;2023-12-04T12:59:29;12.53;;;7.27;;
19183;SDS011;9724;51.194;6.856;2023-12-04T13:01:56;13.37;;;7.70;;
19183;SDS011;9724;51.194;6.856;2023-12-04T13:04:23;14.60;;;7.77;;
19183;SDS011;9724;51.194;6.856;2023-12-04T13:06:51;14.80;;;7.60;;
19183;SDS011;9724;51.194;6.856;2023-12-04T13:09:19;11.87;;;7.07;;
19183;SDS011;9724;51.194;6.856;2023-12-04T13:11:45;18.33;;;6.57;;
19183;SDS011;9724;51.194;6.856;2023-12-04T13:14:11;12.80;;;7.30;;
19183;SDS011;9724;51.194;6.856;2023-12-04T13:16:38;12.33;;;6.33;;
19183;SDS011;9724;51.194;6.856;2023-12-04T13:19:04;12.33;;;7.47;;
19183;SDS011;9724;51.194;6.856;2023-12-04T13:21:31;16.40;;;7.60;;
19183;SDS011;9724;51.194;6.856;2023-12-04T13:23:58;10.87;;;6.90;;
19183;SDS011;9724;51.194;6.856;2023-12-04T13:26:25;12.50;;;7.33;;
19183;SDS011;9724;51.194;6.856;2023-12-04T13:28:51;12.97;;;7.17;;
19183;SDS011;9724;51.194;6.856;2023-12-04T13:31:18;11.67;;;5.90;;
19183;SDS011;9724;51.194;6.856;2023-12-04T13:33:46;11.67;;;6.13;;
19183;SDS011;9724;51.194;6.856;2023-12-04T13:36:12;13.90;;;7.33;;
19183;SDS011;9724;51.194;6.856;2023-12-04T13:38:39;14.43;;;7.13;;
19183;SDS011;9724;51.194;6.856;2023-12-04T13:41:06;12.70;;;6.73;;
19183;SDS011;9724;51.194;6.856;2023-12-04T13:44:04;18.97;;;7.20;;
19183;SDS011;9724;51.194;6.856;2023-12-04T13:46:30;14.63;;;7.23;;
19183;SDS011;9724;51.194;6.856;2023-12-04T13:48:57;18.17;;;7.30;;
19183;SDS011;9724;51.194;6.856;2023-12-04T13:51:24;12.47;;;6.20;;
19183;SDS011;9724;51.194;6.856;2023-12-04T13:53:52;9.20;;;5.70;;
19183;SDS011;9724;51.194;6.856;2023-12-04T13:56:27;9.77;;;5.67;;
19183;SDS011;9724;51.194;6.856;2023-12-04T13:59:07;9.97;;;4.23;;
19183;SDS011;9724;51.194;6.856;2023-12-04T14:01:33;10.90;;;6.23;;
19183;SDS011;9724;51.194;6.856;2023-12-04T14:04:04;14.47;;;6.70;;
19183;SDS011;9724;51.194;6.856;2023-12-04T14:06:31;8.97;;;5.27;;
19183;SDS011;9724;51.194;6.856;2023-12-04T14:08:59;9.30;;;5.33;;
19183;SDS011;9724;51.194;6.856;2023-12-04T14:11:26;13.53;;;6.63;;
19183;SDS011;9724;51.194;6.856;2023-12-04T14:13:53;8.90;;;5.57;;
19183;SDS011;9724;51.194;6.856;2023-12-04T14:16:20;12.70;;;4.83;;
19183;SDS011;9724;51.194;6.856;2023-12-04T14:18:47;8.80;;;5.17;;
19183;SDS011;9724;51.194;6.856;2023-12-04T14:21:13;8.83;;;5.27;;
19183;SDS011;9724;51.194;6.856;2023-12-04T14:23:40;11.07;;;5.80;;
19183;SDS011;9724;51.194;6.856;2023-12-04T14:26:07;7.23;;;3.93;;
19183;SDS011;9724;51.194;6.856;2023-12-04T14:28:34;8.67;;;4.97;;
19183;SDS011;9724;51.194;6.856;2023-12-04T14:31:08;8.73;;;5.17;;
19183;SDS011;9724;51.194;6.856;2023-12-04T14:33:35;8.27;;;5.40;;
19183;SDS011;9724;51.194;6.856;2023-12-04T14:36:04;7.20;;;4.53;;
19183;SDS011;9724;51.194;6.856;2023-12-04T14:38:31;10.83;;;5.60;;
19183;SDS011;9724;51.194;6.856;2023-12-04T14:40:57;10.67;;;5.43;;
19183;SDS011;9724;51.194;6.856;2023-12-04T14:43:25;8.67;;;4.67;;
19183;SDS011;9724;51.194;6.856;2023-12-04T14:45:52;8.40;;;5.40;;
19183;SDS011;9724;51.194;6.856;2023-12-04T14:48:19;7.67;;;5.07;;
19183;SDS011;9724;51.194;6.856;2023-12-04T14:50:45;9.10;;;5.37;;